Time;durP1;ratioP1;P1;durP2;ratioP2;P2;SDS_P1;SDS_P2;PMS_P1;PMS_P2;Temp;Humidity;BMP_temperature;BMP_pressure;BME280_temperature;BME280_humidity;BME280_pressure;Samples;Min_cycle;Max_cycle;Signal;HPM_P1;HPM_P2
2023/03/21 00:00:14;;;;;;;;;;;;;;;;;;4921617;29;19923;-92
2023/03/21 00:02:40;;;;;;;;;;;;;;;;;;4920819;29;19923;-92
2023/03/21 00:05:06;;;;;;;;;;;;;;;;;;4920864;29;19923;-93
2023/03/21 00:07:32;;;;;;;;;;;;;;;;;;4920846;29;20018;-92
2023/03/21 00:09:58;;;;;;;;;;;;;;;;;;4920543;29;19990;-93
2023/03/21 00:12:24;;;;;;;;;;;;;;;;;;4920846;29;20287;-94
2023/03/21 00:14:52;;;;;;;;;;;;;;;;;;4920059;29;19927;-94
2023/03/21 00:17:21;;;;;;;;;;;;;;;;;;4920706;29;20013;-94
2023/03/21 00:19:47;;;;;;;;;;;;;;;;;;4920941;29;19978;-93
2023/03/21 00:22:13;;;;;;;;;;;;;;;;;;4920750;29;20287;-94
2023/03/21 00:24:39;;;;;;;;;;;;;;;;;;4920682;29;19922;-93
2023/03/21 00:27:05;;;;;;;;;;;;;;;;;;4920073;29;19933;-94
2023/03/21 00:29:31;;;;;;;;;;;;;;;;;;4920133;29;20310;-94
2023/03/21 00:31:57;;;;;;;;;;;;;;;;;;4920423;29;19922;-96
2023/03/21 00:34:23;;;;;;;;;;;;;;;;;;4920377;29;19933;-94
2023/03/21 00:36:50;;;;;;;;;;;;;;;;;;4919698;29;19927;-93
2023/03/21 00:39:16;;;;;;;;;;;;;;;;;;4919834;29;19922;-92
2023/03/21 00:41:42;;;;;;;;;;;;;;;;;;4920097;29;19930;-94
2023/03/21 00:44:08;;;;;;;;;;;;;;;;;;4919261;29;19923;-94
2023/03/21 00:46:34;;;;;;;;;;;;;;;;;;4919820;29;19930;-93
2023/03/21 00:49:00;;;;;;;;;;;;;;;;;;4919376;29;20083;-92
2023/03/21 00:51:26;;;;;;;;;;;;;;;;;;4919194;29;20612;-92
2023/03/21 00:53:52;;;;;;;;;;;;;;;;;;4919151;29;19934;-93
2023/03/21 00:56:18;;;;;;;;;;;;;;;;;;4918647;29;19923;-92
2023/03/21 00:58:44;;;;;;;;;;;;;;;;;;4935303;29;19929;-93
2023/03/21 01:01:10;;;;;;;;;;;;;;;;;;4919306;29;19973;-92
2023/03/21 01:03:41;;;;;;;;;;;;;;;;;;4919513;29;19922;-92
2023/03/21 01:06:07;;;;;;;;;;;;;;;;;;4918982;29;20401;-93
2023/03/21 01:08:36;;;;;;;;;;;;;;;;;;4934888;29;19927;-93
2023/03/21 01:11:02;;;;;;;;;;;;;;;;;;4919367;29;19970;-93
2023/03/21 01:13:28;;;;;;;;;;;;;;;;;;4919612;29;19934;-93
2023/03/21 01:15:54;;;;;;;;;;;;;;;;;;4919921;29;19923;-93
2023/03/21 01:18:20;;;;;;;;;;;;;;;;;;4936055;29;19927;-93
2023/03/21 01:20:46;;;;;;;;;;;;;;;;;;4919855;29;19922;-93
2023/03/21 01:23:12;;;;;;;;;;;;;;;;;;4919379;29;19926;-93
2023/03/21 01:25:38;;;;;;;;;;;;;;;;;;4919516;29;19930;-94
2023/03/21 01:28:04;;;;;;;;;;;;;;;;;;4935302;29;19923;-94
2023/03/21 01:30:29;;;;;;;;;;;;;;;;;;4918920;29;19923;-94
2023/03/21 01:32:55;;;;;;;;;;;;;;;;;;4919087;29;19922;-93
2023/03/21 01:35:21;;;;;;;;;;;;;;;;;;4919011;29;19922;-93
2023/03/21 01:37:48;;;;;;;;;;;;;;;;;;4933966;29;19922;-92
2023/03/21 01:40:16;;;;;;;;;;;;;;;;;;4919350;29;19922;-94
2023/03/21 01:42:42;;;;;;;;;;;;;;;;;;4918509;29;19923;-93
2023/03/21 01:45:08;;;;;;;;;;;;;;;;;;4919340;29;19923;-93
2023/03/21 01:47:34;;;;;;;;;;;;;;;;;;4919029;29;19923;-94
2023/03/21 01:50:00;;;;;;;;;;;;;;;;;;4934423;29;19930;-93
2023/03/21 01:52:26;;;;;;;;;;;;;;;;;;4919553;29;19923;-93
2023/03/21 01:54:53;;;;;;;;;;;;;;;;;;4918891;29;20302;-93
2023/03/21 01:57:19;;;;;;;;;;;;;;;;;;4919424;29;19923;-94
2023/03/21 01:59:45;;;;;;;;;;;;;;;;;;4918545;29;20271;-93
2023/03/21 02:02:11;;;;;;;;;;;;;;;;;;4919214;29;19930;-92
2023/03/21 02:04:37;;;;;;;;;;;;;;;;;;4919384;29;20361;-93
2023/03/21 02:07:03;;;;;;;;;;;;;;;;;;4919041;29;19923;-92
2023/03/21 02:09:29;;;;;;;;;;;;;;;;;;4918685;29;19929;-93
2023/03/21 02:11:55;;;;;;;;;;;;;;;;;;4919176;29;19974;-93
2023/03/21 02:14:23;;;;;;;;;;;;;;;;;;4919983;29;19927;-92
2023/03/21 02:16:48;;;;;;;;;;;;;;;;;;4922199;29;19931;-93
2023/03/21 02:19:15;;;;;;;;;;;;;;;;;;4921729;29;19922;-92
2023/03/21 02:21:40;;;;;;;;;;;;;;;;;;4922817;29;19951;-93
2023/03/21 02:24:06;;;;;;;;;;;;;;;;;;4937097;29;20358;-94
2023/03/21 02:26:35;;;;;;;;;;;;;;;;;;4937342;29;20375;-93
2023/03/21 02:29:01;;;;;;;;;;;;;;;;;;4921675;29;19923;-92
2023/03/21 02:31:27;;;;;;;;;;;;;;;;;;4938134;29;19970;-93
2023/03/21 02:33:53;;;;;;;;;;;;;;;;;;4921683;29;19938;-92
2023/03/21 02:36:21;;;;;;;;;;;;;;;;;;4938053;29;19927;-92
2023/03/21 02:38:47;;;;;;;;;;;;;;;;;;4921805;29;20413;-93
2023/03/21 02:41:12;;;;;;;;;;;;;;;;;;4921436;29;19923;-93
2023/03/21 02:43:39;;;;;;;;;;;;;;;;;;4921942;29;19923;-94
2023/03/21 02:46:05;;;;;;;;;;;;;;;;;;4921446;29;19970;-93
2023/03/21 02:48:31;;;;;;;;;;;;;;;;;;4921785;29;19930;-93
2023/03/21 02:50:57;;;;;;;;;;;;;;;;;;4922479;29;20389;-92
2023/03/21 02:53:23;;;;;;;;;;;;;;;;;;4921780;29;19927;-92
2023/03/21 02:55:49;;;;;;;;;;;;;;;;;;4921755;29;20017;-91
2023/03/21 02:58:15;;;;;;;;;;;;;;;;;;4920507;29;19985;-94
2023/03/21 03:00:43;;;;;;;;;;;;;;;;;;4921694;29;19973;-92
2023/03/21 03:03:09;;;;;;;;;;;;;;;;;;4921140;29;20359;-93
2023/03/21 03:05:35;;;;;;;;;;;;;;;;;;4921007;29;19930;-92
2023/03/21 03:08:02;;;;;;;;;;;;;;;;;;4921463;29;19923;-92
2023/03/21 03:10:27;;;;;;;;;;;;;;;;;;4921346;29;20334;-93
2023/03/21 03:12:53;;;;;;;;;;;;;;;;;;4921480;29;19930;-93
2023/03/21 03:15:20;;;;;;;;;;;;;;;;;;4921410;29;19930;-93
2023/03/21 03:17:46;;;;;;;;;;;;;;;;;;4921859;29;19931;-93
2023/03/21 03:20:12;;;;;;;;;;;;;;;;;;4921281;29;19977;-92
2023/03/21 03:22:38;;;;;;;;;;;;;;;;;;4921479;29;19929;-93
2023/03/21 03:25:04;;;;;;;;;;;;;;;;;;4921677;29;20222;-93
2023/03/21 03:27:31;;;;;;;;;;;;;;;;;;4921725;29;20347;-93
2023/03/21 03:29:57;;;;;;;;;;;;;;;;;;4921745;29;19926;-93
2023/03/21 03:32:24;;;;;;;;;;;;;;;;;;4922014;29;20248;-94
2023/03/21 03:34:50;;;;;;;;;;;;;;;;;;4921660;29;20408;-94
2023/03/21 03:37:16;;;;;;;;;;;;;;;;;;4920966;29;19962;-94
2023/03/21 03:39:42;;;;;;;;;;;;;;;;;;4921602;29;19923;-93
2023/03/21 03:42:08;;;;;;;;;;;;;;;;;;4921670;29;19930;-94
2023/03/21 03:44:34;;;;;;;;;;;;;;;;;;4921352;29;19922;-95
2023/03/21 03:47:00;;;;;;;;;;;;;;;;;;4920848;29;19929;-94
2023/03/21 03:49:27;;;;;;;;;;;;;;;;;;4937508;29;19933;-94
2023/03/21 03:51:53;;;;;;;;;;;;;;;;;;4921537;29;20017;-93
2023/03/21 03:54:18;;;;;;;;;;;;;;;;;;4920954;29;19927;-94
2023/03/21 03:56:45;;;;;;;;;;;;;;;;;;4920967;29;19922;-94
2023/03/21 03:59:11;;;;;;;;;;;;;;;;;;4920788;29;19926;-93
2023/03/21 04:01:37;;;;;;;;;;;;;;;;;;4920804;29;20098;-94
2023/03/21 04:04:06;;;;;;;;;;;;;;;;;;4936740;29;20472;-95
2023/03/21 04:06:32;;;;;;;;;;;;;;;;;;4920995;29;19926;-94
2023/03/21 04:08:59;;;;;;;;;;;;;;;;;;4921426;29;19922;-94
2023/03/21 04:11:26;;;;;;;;;;;;;;;;;;4921347;29;19923;-93
2023/03/21 04:13:52;;;;;;;;;;;;;;;;;;4920722;29;19930;-93
2023/03/21 04:16:18;;;;;;;;;;;;;;;;;;4920913;29;19922;-93
2023/03/21 04:18:45;;;;;;;;;;;;;;;;;;4919783;29;19923;-94
2023/03/21 04:21:12;;;;;;;;;;;;;;;;;;4920907;29;19978;-93
2023/03/21 04:23:38;;;;;;;;;;;;;;;;;;4920485;29;20017;-93
2023/03/21 04:26:04;;;;;;;;;;;;;;;;;;4920571;29;19985;-93
2023/03/21 04:28:30;;;;;;;;;;;;;;;;;;4920702;29;19923;-94
2023/03/21 04:30:56;;;;;;;;;;;;;;;;;;4920567;29;19922;-94
2023/03/21 04:33:24;;;;;;;;;;;;;;;;;;4920630;29;19981;-94
2023/03/21 04:35:54;;;;;;;;;;;;;;;;;;4920416;29;19927;-92
2023/03/21 04:38:20;;;;;;;;;;;;;;;;;;4919526;29;20026;-94
2023/03/21 04:40:46;;;;;;;;;;;;;;;;;;4920136;29;19994;-93
2023/03/21 04:43:12;;;;;;;;;;;;;;;;;;4920519;29;19923;-91
2023/03/21 04:45:38;;;;;;;;;;;;;;;;;;4935820;29;19923;-91
2023/03/21 04:48:04;;;;;;;;;;;;;;;;;;4919864;29;19930;-92
2023/03/21 04:50:33;;;;;;;;;;;;;;;;;;4936404;29;19969;-90
2023/03/21 04:52:59;;;;;;;;;;;;;;;;;;4920096;29;20438;-91
2023/03/21 04:55:26;;;;;;;;;;;;;;;;;;4919922;29;20142;-89
2023/03/21 04:57:52;;;;;;;;;;;;;;;;;;4920319;29;19923;-90
2023/03/21 05:00:19;;;;;;;;;;;;;;;;;;4919575;29;20346;-90
2023/03/21 05:02:45;;;;;;;;;;;;;;;;;;4920399;29;19983;-90
2023/03/21 05:05:12;;;;;;;;;;;;;;;;;;4919853;29;19923;-92
2023/03/21 05:07:38;;;;;;;;;;;;;;;;;;4921098;29;19930;-93
2023/03/21 05:10:04;;;;;;;;;;;;;;;;;;4922703;29;19922;-91
2023/03/21 05:12:30;;;;;;;;;;;;;;;;;;4923951;29;20136;-90
2023/03/21 05:14:56;;;;;;;;;;;;;;;;;;4924225;29;20069;-91
2023/03/21 05:17:23;;;;;;;;;;;;;;;;;;4939248;29;19946;-91
2023/03/21 05:19:51;;;;;;;;;;;;;;;;;;4922830;29;19930;-90
2023/03/21 05:22:18;;;;;;;;;;;;;;;;;;4922300;29;20382;-91
2023/03/21 05:24:48;;;;;;;;;;;;;;;;;;4921799;29;19972;-91
2023/03/21 05:27:35;;;;;;;;;;;;;;;;;;4921760;29;20213;-90
2023/03/21 05:30:00;;;;;;;;;;;;;;;;;;4938882;28;19927;-93
2023/03/21 05:32:26;;;;;;;;;;;;;;;;;;4925679;29;19930;-91
2023/03/21 05:34:53;;;;;;;;;;;;;;;;;;4922660;29;19927;-88
2023/03/21 05:37:19;;;;;;;;;;;;;;;;;;4935973;29;20298;-90
2023/03/21 05:39:45;;;;;;;;;;;;;;;;;;4919732;29;19974;-89
2023/03/21 05:42:10;;;;;;;;;;;;;;;;;;4919361;29;19927;-91
2023/03/21 05:44:39;;;;;;;;;;;;;;;;;;4919002;29;19927;-89
2023/03/21 05:47:05;;;;;;;;;;;;;;;;;;4919324;29;19923;-91
2023/03/21 05:49:31;;;;;;;;;;;;;;;;;;4920048;29;19923;-90
2023/03/21 05:51:57;;;;;;;;;;;;;;;;;;4922385;29;19926;-89
2023/03/21 05:54:23;;;;;;;;;;;;;;;;;;4937963;29;20022;-89
2023/03/21 05:56:49;;;;;;;;;;;;;;;;;;4938112;29;20305;-90
2023/03/21 05:59:15;;;;;;;;;;;;;;;;;;4922272;29;19929;-90
2023/03/21 06:01:41;;;;;;;;;;;;;;;;;;4922191;29;19977;-89
2023/03/21 06:04:07;;;;;;;;;;;;;;;;;;4922244;29;19927;-90
2023/03/21 06:06:33;;;;;;;;;;;;;;;;;;4921927;29;19926;-89
2023/03/21 06:08:59;;;;;;;;;;;;;;;;;;4922199;29;19923;-89
2023/03/21 06:11:25;;;;;;;;;;;;;;;;;;4922245;29;19923;-90
2023/03/21 06:13:51;;;;;;;;;;;;;;;;;;4921666;29;19966;-90
2023/03/21 06:16:17;;;;;;;;;;;;;;;;;;4922671;29;19927;-86
2023/03/21 06:18:42;;;;;;;;;;;;;;;;;;4921865;29;19946;-92
2023/03/21 06:21:09;;;;;;;;;;;;;;;;;;4922502;29;19938;-92
2023/03/21 06:23:35;;;;;;;;;;;;;;;;;;4922362;29;19923;-91
2023/03/21 06:26:01;;;;;;;;;;;;;;;;;;4921436;29;20013;-91
2023/03/21 06:28:27;;;;;;;;;;;;;;;;;;4921631;29;20001;-91
2023/03/21 06:30:53;;;;;;;;;;;;;;;;;;4923215;29;20382;-90
2023/03/21 06:33:22;;;;;;;;;;;;;;;;;;4922084;29;20379;-92
2023/03/21 06:35:51;;;;;;;;;;;;;;;;;;4939000;29;19923;-92
2023/03/21 06:38:17;;;;;;;;;;;;;;;;;;4921482;29;19926;-91
2023/03/21 06:40:43;;;;;;;;;;;;;;;;;;4921656;29;19930;-91
2023/03/21 06:43:09;;;;;;;;;;;;;;;;;;4921691;29;19922;-92
2023/03/21 06:45:35;;;;;;;;;;;;;;;;;;4921765;29;19930;-91
2023/03/21 06:48:01;;;;;;;;;;;;;;;;;;4921234;29;19970;-92
2023/03/21 06:50:27;;;;;;;;;;;;;;;;;;4921680;29;20325;-93
2023/03/21 06:52:59;;;;;;;;;;;;;;;;;;4937560;29;20002;-92
2023/03/21 06:55:25;;;;;;;;;;;;;;;;;;4921993;29;19930;-90
2023/03/21 06:57:51;;;;;;;;;;;;;;;;;;4922303;29;19929;-92
2023/03/21 07:00:17;;;;;;;;;;;;;;;;;;4920905;29;19923;-92
2023/03/21 07:02:43;;;;;;;;;;;;;;;;;;4921574;29;19932;-92
2023/03/21 07:05:10;;;;;;;;;;;;;;;;;;4921775;29;20101;-90
2023/03/21 07:07:35;;;;;;;;;;;;;;;;;;4939120;29;19922;-92
2023/03/21 07:10:01;;;;;;;;;;;;;;;;;;4937272;29;19946;-92
2023/03/21 07:12:27;;;;;;;;;;;;;;;;;;4921738;29;19968;-91
2023/03/21 07:14:53;;;;;;;;;;;;;;;;;;4921195;29;19927;-91
2023/03/21 07:17:19;;;;;;;;;;;;;;;;;;4921876;29;19930;-92
2023/03/21 07:19:45;;;;;;;;;;;;;;;;;;4922383;29;19930;-92
2023/03/21 07:22:11;;;;;;;;;;;;;;;;;;4921874;29;20381;-91
2023/03/21 07:24:37;;;;;;;;;;;;;;;;;;4921135;29;19926;-91
2023/03/21 07:27:09;;;;;;;;;;;;;;;;;;4920026;29;19934;-92
2023/03/21 07:29:36;;;;;;;;;;;;;;;;;;4921799;29;19981;-95
2023/03/21 07:32:02;;;;;;;;;;;;;;;;;;4922270;29;19951;-93
2023/03/21 07:34:32;;;;;;;;;;;;;;;;;;4921822;29;19927;-91
2023/03/21 07:36:57;;;;;;;;;;;;;;;;;;4936677;29;19926;-94
2023/03/21 07:39:24;;;;;;;;;;;;;;;;;;4921806;29;19927;-93
2023/03/21 07:41:50;;;;;;;;;;;;;;;;;;4922002;29;19945;-89
2023/03/21 07:44:16;;;;;;;;;;;;;;;;;;4921133;29;20467;-92
2023/03/21 07:46:42;;;;;;;;;;;;;;;;;;4921398;29;19930;-90
2023/03/21 07:49:08;;;;;;;;;;;;;;;;;;4923588;29;19922;-91
2023/03/21 07:51:34;;;;;;;;;;;;;;;;;;4922282;29;20260;-91
2023/03/21 07:54:00;;;;;;;;;;;;;;;;;;4923261;29;20389;-89
2023/03/21 07:56:26;;;;;;;;;;;;;;;;;;4923819;29;20409;-93
2023/03/21 07:58:52;;;;;;;;;;;;;;;;;;4923736;29;19928;-93
2023/03/21 08:01:18;;;;;;;;;;;;;;;;;;4922481;29;19974;-92
2023/03/21 08:03:44;;;;;;;;;;;;;;;;;;4920031;29;19929;-90
2023/03/21 08:06:10;;;;;;;;;;;;;;;;;;4935426;29;19922;-94
2023/03/21 08:08:36;;;;;;;;;;;;;;;;;;4954059;23;19926;-92
2023/03/21 08:11:05;;;;;;;;;;;;;;;;;;4940165;29;19984;-92
2023/03/21 08:13:31;;;;;;;;;;;;;;;;;;4923768;29;19931;-92
2023/03/21 08:15:57;;;;;;;;;;;;;;;;;;4914046;29;19970;-92
2023/03/21 08:18:23;;;;;;;;;;;;;;;;;;4905964;29;20298;-91
2023/03/21 08:20:49;;;;;;;;;;;;;;;;;;4920757;29;20406;-92
2023/03/21 08:23:15;;;;;;;;;;;;;;;;;;4920471;29;19922;-92
2023/03/21 08:25:41;;;;;;;;;;;;;;;;;;4921177;29;19929;-91
2023/03/21 08:28:07;;;;;;;;;;;;;;;;;;4920819;29;20355;-92
2023/03/21 08:30:33;;;;;;;;;;;;;;;;;;4919402;29;20027;-95
2023/03/21 08:33:03;;;;;;;;;;;;;;;;;;4934678;29;19926;-92
2023/03/21 08:35:32;;;;;;;;;;;;;;;;;;4922869;29;19929;-92
2023/03/21 08:37:57;;;;;;;;;;;;;;;;;;4919851;29;19923;-92
2023/03/21 08:40:24;;;;;;;;;;;;;;;;;;4919760;29;20395;-91
2023/03/21 08:42:52;;;;;;;;;;;;;;;;;;4920041;29;19923;-92
2023/03/21 08:45:18;;;;;;;;;;;;;;;;;;4919464;29;20366;-91
2023/03/21 08:47:46;;;;;;;;;;;;;;;;;;4935075;29;19974;-92
2023/03/21 08:50:15;;;;;;;;;;;;;;;;;;4920249;29;19923;-91
2023/03/21 08:52:41;;;;;;;;;;;;;;;;;;4919808;29;19930;-91
2023/03/21 08:55:08;;;;;;;;;;;;;;;;;;4919138;29;19927;-91
2023/03/21 08:57:34;;;;;;;;;;;;;;;;;;4919362;29;19922;-92
2023/03/21 09:00:24;;;;;;;;;;;;;;;;;;4930891;29;19930;-92
2023/03/21 09:02:50;;;;;;;;;;;;;;;;;;4920047;29;19923;-93
2023/03/21 09:05:17;;;;;;;;;;;;;;;;;;4919618;29;19922;-92
2023/03/21 09:07:43;;;;;;;;;;;;;;;;;;4935876;29;19923;-93
2023/03/21 09:10:10;;;;;;;;;;;;;;;;;;4919648;29;20314;-92
2023/03/21 09:12:36;;;;;;;;;;;;;;;;;;4920033;29;20370;-93
2023/03/21 09:15:03;;;;;;;;;;;;;;;;;;4919736;29;19981;-94
2023/03/21 09:17:30;;;;;;;;;;;;;;;;;;4919685;29;19926;-94
2023/03/21 09:19:58;;;;;;;;;;;;;;;;;;4919813;29;20378;-95
2023/03/21 09:22:24;;;;;;;;;;;;;;;;;;4919637;29;19923;-96
2023/03/21 09:24:53;;;;;;;;;;;;;;;;;;4922590;29;19930;-94
2023/03/21 09:27:53;;;;;;;;;;;;;;;;;;4942866;29;20385;-94
2023/03/21 09:30:21;;;;;;;;;;;;;;;;;;4940456;29;19933;-93
2023/03/21 09:32:48;;;;;;;;;;;;;;;;;;4938517;29;19926;-91
2023/03/21 09:35:15;;;;;;;;;;;;;;;;;;4923465;29;20287;-92
2023/03/21 09:37:41;;;;;;;;;;;;;;;;;;4923570;29;19923;-93
2023/03/21 09:40:07;;;;;;;;;;;;;;;;;;4923786;29;19923;-92
2023/03/21 09:42:34;;;;;;;;;;;;;;;;;;4923707;29;19987;-93
2023/03/21 09:45:00;;;;;;;;;;;;;;;;;;4923308;29;19923;-91
2023/03/21 09:47:27;;;;;;;;;;;;;;;;;;4923296;29;19946;-92
2023/03/21 09:49:59;;;;;;;;;;;;;;;;;;4939136;29;19923;-93
2023/03/21 09:52:46;;;;;;;;;;;;;;;;;;4940238;29;19927;-93
2023/03/21 09:55:18;;;;;;;;;;;;;;;;;;4923689;29;19933;-93
2023/03/21 09:57:45;;;;;;;;;;;;;;;;;;4923412;29;20141;-94
2023/03/21 10:00:21;;;;;;;;;;;;;;;;;;4923593;29;20335;-93
2023/03/21 10:02:48;;;;;;;;;;;;;;;;;;4939354;29;19945;-92
2023/03/21 10:05:14;;;;;;;;;;;;;;;;;;4923354;29;19930;-94
2023/03/21 10:07:40;;;;;;;;;;;;;;;;;;4923415;29;19930;-93
2023/03/21 10:10:06;;;;;;;;;;;;;;;;;;4923471;29;19926;-93
2023/03/21 10:12:32;;;;;;;;;;;;;;;;;;4922456;29;20312;-91
2023/03/21 10:14:58;;;;;;;;;;;;;;;;;;4922111;29;19979;-90
2023/03/21 10:17:24;;;;;;;;;;;;;;;;;;4921945;29;19923;-91
2023/03/21 10:19:51;;;;;;;;;;;;;;;;;;4921189;29;19918;-92
2023/03/21 10:22:16;;;;;;;;;;;;;;;;;;4922230;29;20009;-93
2023/03/21 10:24:54;;;;;;;;;;;;;;;;;;4938106;29;19931;-93
2023/03/21 10:27:21;;;;;;;;;;;;;;;;;;4923429;29;19941;-91
2023/03/21 10:29:47;;;;;;;;;;;;;;;;;;4922424;29;19970;-92
2023/03/21 10:32:12;;;;;;;;;;;;;;;;;;4925416;29;19926;-92
2023/03/21 10:34:38;;;;;;;;;;;;;;;;;;4925089;28;19985;-93
2023/03/21 10:37:05;;;;;;;;;;;;;;;;;;4924612;29;19930;-93
2023/03/21 10:39:33;;;;;;;;;;;;;;;;;;4925735;29;19922;-93
2023/03/21 10:41:59;;;;;;;;;;;;;;;;;;4925106;29;20452;-93
2023/03/21 10:44:28;;;;;;;;;;;;;;;;;;4942660;29;20017;-92
2023/03/21 10:47:03;;;;;;;;;;;;;;;;;;4927500;29;20361;-93
2023/03/21 10:49:32;;;;;;;;;;;;;;;;;;4925422;29;19929;-96
2023/03/21 10:51:58;;;;;;;;;;;;;;;;;;4925638;29;19966;-94
2023/03/21 10:54:28;;;;;;;;;;;;;;;;;;4941138;29;19927;-91
2023/03/21 10:56:54;;;;;;;;;;;;;;;;;;4922185;29;19963;-93
2023/03/21 10:59:21;;;;;;;;;;;;;;;;;;4922294;29;20009;-90
2023/03/21 11:01:47;;;;;;;;;;;;;;;;;;4922377;29;19930;-93
2023/03/21 11:04:13;;;;;;;;;;;;;;;;;;4922116;29;19923;-96
2023/03/21 11:06:39;;;;;;;;;;;;;;;;;;4923024;29;20365;-92
2023/03/21 11:09:05;;;;;;;;;;;;;;;;;;4921691;29;19926;-93
2023/03/21 11:11:31;;;;;;;;;;;;;;;;;;4922022;29;19930;-93
2023/03/21 11:14:00;;;;;;;;;;;;;;;;;;4921652;29;19933;-93
2023/03/21 11:16:28;;;;;;;;;;;;;;;;;;4937364;29;19923;-90
2023/03/21 11:18:54;;;;;;;;;;;;;;;;;;4920489;29;19930;-92
2023/03/21 11:21:21;;;;;;;;;;;;;;;;;;4921278;29;19970;-93
2023/03/21 11:23:51;;;;;;;;;;;;;;;;;;4937799;29;19930;-93
2023/03/21 11:26:17;;;;;;;;;;;;;;;;;;4921489;29;19970;-91
2023/03/21 11:28:43;;;;;;;;;;;;;;;;;;4921216;29;19923;-93
2023/03/21 11:31:09;;;;;;;;;;;;;;;;;;4922230;29;19927;-93
2023/03/21 11:33:54;;;;;;;;;;;;;;;;;;4921404;29;19931;-96
2023/03/21 11:36:21;;;;;;;;;;;;;;;;;;4921862;29;20078;-93
2023/03/21 11:38:50;;;;;;;;;;;;;;;;;;4921792;29;19961;-93
2023/03/21 11:41:16;;;;;;;;;;;;;;;;;;4921408;29;19930;-94
2023/03/21 11:43:52;;;;;;;;;;;;;;;;;;;;;
2023/03/21 11:46:21;;;;;;;;;;;;;;;;;;4937173;29;20038;-94
2023/03/21 11:48:47;;;;;;;;;;;;;;;;;;4922156;29;20350;-92
2023/03/21 11:51:13;;;;;;;;;;;;;;;;;;4922005;29;19927;-92
2023/03/21 11:53:41;;;;;;;;;;;;;;;;;;4921762;29;19938;-93
2023/03/21 11:56:13;;;;;;;;;;;;;;;;;;4916784;29;19923;-93
2023/03/21 11:58:40;;;;;;;;;;;;;;;;;;4901256;29;19927;-93
2023/03/21 12:04:09;;;;;;;;;;;;;;;;;;5419273;23;19987;-93
2023/03/21 12:06:36;;;;;;;;;;;;;;;;;;4909378;29;19922;-94
2023/03/21 12:09:03;;;;;;;;;;;;;;;;;;4905573;29;19930;-93
2023/03/21 12:11:29;;;;;;;;;;;;;;;;;;4904778;29;19923;-90
2023/03/21 12:13:55;;;;;;;;;;;;;;;;;;4904059;29;19927;-93
2023/03/21 12:19:22;;;;;;;;;;;;;;;;;;4922953;29;19922;-93
2023/03/21 12:21:49;;;;;;;;;;;;;;;;;;4920408;29;20243;-93
2023/03/21 12:24:15;;;;;;;;;;;;;;;;;;4905715;29;20018;-96
2023/03/21 12:26:41;;;;;;;;;;;;;;;;;;4905431;29;20017;-94
2023/03/21 12:29:07;;;;;;;;;;;;;;;;;;4904439;29;20330;-94
2023/03/21 12:31:36;;;;;;;;;;;;;;;;;;4904662;29;19923;-96
2023/03/21 12:34:01;;;;;;;;;;;;;;;;;;4906074;29;20232;-96
2023/03/21 12:36:30;;;;;;;;;;;;;;;;;;4905619;29;19922;-95
2023/03/21 12:39:08;;;;;;;;;;;;;;;;;;4905070;29;20013;-96
2023/03/21 12:41:45;;;;;;;;;;;;;;;;;;4937112;29;19923;-95
2023/03/21 12:44:12;;;;;;;;;;;;;;;;;;4920990;29;19923;-95
2023/03/21 12:46:41;;;;;;;;;;;;;;;;;;4979942;23;19927;-95
2023/03/21 12:49:11;;;;;;;;;;;;;;;;;;4941114;29;19928;-94
2023/03/21 12:51:37;;;;;;;;;;;;;;;;;;4924387;29;19965;-93
2023/03/21 12:54:04;;;;;;;;;;;;;;;;;;4940275;29;20492;-94
2023/03/21 12:56:32;;;;;;;;;;;;;;;;;;4924817;29;19947;-93
2023/03/21 12:58:58;;;;;;;;;;;;;;;;;;4910560;29;19922;-94
2023/03/21 13:01:24;;;;;;;;;;;;;;;;;;4923093;29;19928;-95
2023/03/21 13:03:50;;;;;;;;;;;;;;;;;;4923393;29;20000;-95
2023/03/21 13:06:17;;;;;;;;;;;;;;;;;;4923507;29;19922;-94
2023/03/21 13:08:43;;;;;;;;;;;;;;;;;;4923799;29;19929;-94
2023/03/21 13:11:09;;;;;;;;;;;;;;;;;;4939366;29;20426;-93
2023/03/21 13:13:35;;;;;;;;;;;;;;;;;;4922903;29;19937;-94
2023/03/21 13:16:01;;;;;;;;;;;;;;;;;;4923386;29;19922;-95
2023/03/21 13:18:27;;;;;;;;;;;;;;;;;;4922961;29;19969;-95
2023/03/21 13:20:52;;;;;;;;;;;;;;;;;;4922813;29;19923;-95
2023/03/21 13:23:18;;;;;;;;;;;;;;;;;;4923505;29;19922;-93
2023/03/21 13:25:45;;;;;;;;;;;;;;;;;;4923945;29;19926;-93
2023/03/21 13:28:10;;;;;;;;;;;;;;;;;;4926971;29;19922;-96
2023/03/21 13:30:36;;;;;;;;;;;;;;;;;;4923710;29;19978;-95
2023/03/21 13:33:02;;;;;;;;;;;;;;;;;;4923528;29;19966;-95
2023/03/21 13:35:28;;;;;;;;;;;;;;;;;;4922751;29;19957;-95
2023/03/21 13:37:54;;;;;;;;;;;;;;;;;;4922587;29;19965;-95
2023/03/21 13:40:20;;;;;;;;;;;;;;;;;;4923785;29;19929;-95
2023/03/21 13:42:46;;;;;;;;;;;;;;;;;;4922593;29;19973;-95
2023/03/21 13:45:12;;;;;;;;;;;;;;;;;;4923050;29;19923;-95
2023/03/21 13:47:38;;;;;;;;;;;;;;;;;;4922447;29;19949;-95
2023/03/21 13:50:04;;;;;;;;;;;;;;;;;;4922720;29;20350;-96
2023/03/21 13:52:30;;;;;;;;;;;;;;;;;;4923590;29;20029;-95
2023/03/21 13:57:33;;;;;;;;;;;;;;;;;;5720612;23;1922008;-95
2023/03/21 14:00:00;;;;;;;;;;;;;;;;;;4925627;29;19922;-96
2023/03/21 14:02:28;;;;;;;;;;;;;;;;;;4926213;29;19923;-95
2023/03/21 14:05:03;;;;;;;;;;;;;;;;;;4926599;29;19923;-96
2023/03/21 14:07:30;;;;;;;;;;;;;;;;;;4906851;29;19930;-96
2023/03/21 14:24:16;;;;;;;;;;;;;;;;;;5659862;23;19934;-94
2023/03/21 14:26:43;;;;;;;;;;;;;;;;;;4910701;29;20009;-95
2023/03/21 14:29:09;;;;;;;;;;;;;;;;;;4909762;29;20041;-95
2023/03/21 14:34:32;;;;;;;;;;;;;;;;;;4928147;29;19982;-96
2023/03/21 14:40:05;;;;;;;;;;;;;;;;;;4939463;29;19926;-94
2023/03/21 14:42:31;;;;;;;;;;;;;;;;;;4906939;29;19927;-94
2023/03/21 14:44:59;;;;;;;;;;;;;;;;;;4906505;29;19930;-94
2023/03/21 14:47:27;;;;;;;;;;;;;;;;;;4906361;29;19922;-95
2023/03/21 14:49:53;;;;;;;;;;;;;;;;;;4908277;29;19923;-96
2023/03/21 14:55:24;;;;;;;;;;;;;;;;;;5846104;23;19926;-95
2023/03/21 14:57:50;;;;;;;;;;;;;;;;;;4926252;29;20281;-95
2023/03/21 15:00:16;;;;;;;;;;;;;;;;;;4926990;29;20009;-94
2023/03/21 15:02:42;;;;;;;;;;;;;;;;;;4925375;29;20326;-92
2023/03/21 15:05:08;;;;;;;;;;;;;;;;;;4922238;29;20017;-96
2023/03/21 15:07:35;;;;;;;;;;;;;;;;;;4906637;29;20424;-95
2023/03/21 15:10:03;;;;;;;;;;;;;;;;;;4905975;29;19929;-94
2023/03/21 15:17:41;;;;;;;;;;;;;;;;;;5566718;23;19933;-95
2023/03/21 15:20:09;;;;;;;;;;;;;;;;;;4941007;29;19923;-94
2023/03/21 15:22:34;;;;;;;;;;;;;;;;;;4939997;29;19923;-94
2023/03/21 15:25:00;;;;;;;;;;;;;;;;;;4939055;29;19922;-94
2023/03/21 15:27:26;;;;;;;;;;;;;;;;;;4921936;29;19923;-95
2023/03/21 15:29:53;;;;;;;;;;;;;;;;;;4922354;29;19923;-94
2023/03/21 15:32:19;;;;;;;;;;;;;;;;;;4922116;29;19923;-94
2023/03/21 15:34:45;;;;;;;;;;;;;;;;;;4921231;29;19927;-95
2023/03/21 15:37:11;;;;;;;;;;;;;;;;;;4921662;29;19923;-96
2023/03/21 15:39:37;;;;;;;;;;;;;;;;;;4922197;29;19926;-94
2023/03/21 15:42:03;;;;;;;;;;;;;;;;;;4922156;29;19930;-96
2023/03/21 15:44:29;;;;;;;;;;;;;;;;;;4922219;29;20370;-94
2023/03/21 16:14:29;;;;;;;;;;;;;;;;;;5454666;23;19927;-92
2023/03/21 16:16:57;;;;;;;;;;;;;;;;;;4906824;29;20411;-96
2023/03/21 16:19:26;;;;;;;;;;;;;;;;;;4905334;29;19969;-96
2023/03/21 16:21:52;;;;;;;;;;;;;;;;;;4905585;29;20005;-96
2023/03/21 16:24:18;;;;;;;;;;;;;;;;;;4908824;29;19946;-96
2023/03/21 16:26:46;;;;;;;;;;;;;;;;;;4905234;29;19927;-95
2023/03/21 16:29:15;;;;;;;;;;;;;;;;;;4905678;29;19923;-95
2023/03/21 16:31:41;;;;;;;;;;;;;;;;;;4905253;29;20425;-96
2023/03/21 16:34:07;;;;;;;;;;;;;;;;;;4904660;29;20021;-93
2023/03/21 16:36:36;;;;;;;;;;;;;;;;;;4906138;29;19978;-94
2023/03/21 16:39:04;;;;;;;;;;;;;;;;;;4905085;29;19969;-93
2023/03/21 16:41:30;;;;;;;;;;;;;;;;;;4907392;29;19934;-96
2023/03/21 16:43:56;;;;;;;;;;;;;;;;;;4904226;29;19923;-92
2023/03/21 16:46:22;;;;;;;;;;;;;;;;;;4904797;29;19926;-94
2023/03/21 16:48:50;;;;;;;;;;;;;;;;;;4904590;29;19935;-94
2023/03/21 16:51:16;;;;;;;;;;;;;;;;;;4904285;29;19923;-93
2023/03/21 16:53:42;;;;;;;;;;;;;;;;;;4903565;29;20021;-92
2023/03/21 16:56:08;;;;;;;;;;;;;;;;;;4903408;29;19930;-94
2023/03/21 16:58:37;;;;;;;;;;;;;;;;;;4904700;29;19923;-92
2023/03/21 17:01:03;;;;;;;;;;;;;;;;;;4903942;29;19930;-92
2023/03/21 17:03:29;;;;;;;;;;;;;;;;;;4904116;29;19927;-93
2023/03/21 17:05:55;;;;;;;;;;;;;;;;;;4904334;29;20094;-93
2023/03/21 17:08:21;;;;;;;;;;;;;;;;;;4903826;29;19922;-91
2023/03/21 17:10:47;;;;;;;;;;;;;;;;;;4903456;29;20371;-92
2023/03/21 17:13:13;;;;;;;;;;;;;;;;;;4903173;29;19927;-92
2023/03/21 17:15:40;;;;;;;;;;;;;;;;;;4903166;29;20251;-92
2023/03/21 17:18:06;;;;;;;;;;;;;;;;;;4904199;29;19923;-91
2023/03/21 17:20:33;;;;;;;;;;;;;;;;;;4919331;29;19946;-92
2023/03/21 17:22:59;;;;;;;;;;;;;;;;;;4903179;29;20367;-93
2023/03/21 17:25:27;;;;;;;;;;;;;;;;;;4919286;29;19923;-92
2023/03/21 17:27:55;;;;;;;;;;;;;;;;;;4905193;29;19922;-93
2023/03/21 17:30:21;;;;;;;;;;;;;;;;;;4903831;29;19910;-93
2023/03/21 17:32:46;;;;;;;;;;;;;;;;;;4904985;29;19980;-93
2023/03/21 17:35:12;;;;;;;;;;;;;;;;;;4902861;29;20287;-92
2023/03/21 17:37:38;;;;;;;;;;;;;;;;;;4918793;29;19923;-93
2023/03/21 17:40:05;;;;;;;;;;;;;;;;;;4903503;29;19923;-92
2023/03/21 17:42:31;;;;;;;;;;;;;;;;;;4903426;29;19977;-94
2023/03/21 17:44:57;;;;;;;;;;;;;;;;;;4904661;29;19923;-94
2023/03/21 17:47:24;;;;;;;;;;;;;;;;;;4907440;29;19922;-93